| time (UTC) | temp F | wind direction | speed MPH | gust MPH | rain 1hr in | rain 24hr in | rain mn in | humidity % | barometer mb |
| 20260903082053 | 79 | 252 | 1.0 | 4.0 | 0.00 | 0.00 | 0.00 | 41 | 1017.9 |
| 20260903081558 | 79 | 263 | 0.0 | 6.0 | 0.00 | 0.00 | 0.00 | 40 | 1017.8 |
| 20260903081053 | 80 | 295 | 2.0 | 7.0 | 0.00 | 0.00 | 0.00 | 40 | 1017.8 |
| 20260903080554 | 80 | 236 | 2.0 | 7.0 | 0.00 | 0.00 | 0.00 | 38 | 1017.8 |
| 20260903080051 | 80 | 269 | 4.0 | 8.0 | 0.00 | 0.00 | 0.00 | 38 | 1017.8 |
| 20260903075551 | 81 | 263 | 4.0 | 7.0 | 0.00 | 0.00 | 0.00 | 37 | 1017.8 |
| 20260903075051 | 81 | 212 | 0.0 | 5.0 | 0.00 | 0.00 | 0.00 | 37 | 1017.8 |
| 20260903074602 | 81 | 249 | 1.0 | 9.0 | 0.00 | 0.00 | 0.00 | 37 | 1017.9 |
| 20260903074049 | 81 | 256 | 4.0 | 9.0 | 0.00 | 0.00 | 0.00 | 37 | 1017.8 |
| 20260903073549 | 80 | 200 | 0.0 | 4.0 | 0.00 | 0.00 | 0.00 | 39 | 1017.7 |
| 20260903073102 | 81 | 202 | 2.0 | 4.0 | 0.00 | 0.00 | 0.00 | 39 | 1017.8 |
| 20260903072547 | 81 | 330 | 1.0 | 4.0 | 0.00 | 0.00 | 0.00 | 37 | 1017.5 |
| 20260903072047 | 81 | 355 | 0.0 | 4.0 | 0.00 | 0.00 | 0.00 | 37 | 1017.5 |
| 20260903071604 | 80 | 320 | 1.0 | 4.0 | 0.00 | 0.00 | 0.00 | 38 | 1017.5 |
| 20260903071050 | 80 | 290 | 0.0 | 2.0 | 0.00 | 0.00 | 0.00 | 38 | 1017.5 |
| 20260903070545 | 81 | 290 | 0.0 | 0.0 | 0.00 | 0.00 | 0.00 | 37 | 1017.5 |
| 20260903070044 | 81 | 290 | 0.0 | 0.0 | 0.00 | 0.00 | 0.00 | 36 | 1017.5 |
| 20260903065543 | 82 | 290 | 0.0 | 2.0 | 0.00 | 0.00 | 0.00 | 35 | 1017.5 |
| 20260903065041 | 82 | 290 | 0.0 | 2.0 | 0.00 | 0.00 | 0.00 | 34 | 1017.5 |
| 20260903064541 | 83 | 276 | 0.0 | 4.0 | 0.00 | 0.00 | 0.00 | 34 | 1017.5 |
| 20260903064041 | 83 | 276 | 0.0 | 4.0 | 0.00 | 0.00 | 0.00 | 33 | 1017.5 |
| 20260903063540 | 83 | 300 | 1.0 | 4.0 | 0.00 | 0.00 | 0.00 | 33 | 1017.5 |
| 20260903063046 | 83 | 325 | 0.0 | 2.0 | 0.00 | 0.00 | 0.00 | 33 | 1017.5 |
| 20260903062540 | 83 | 325 | 0.0 | 2.0 | 0.00 | 0.00 | 0.00 | 34 | 1017.5 |
| 20260903062042 | 83 | 315 | 0.0 | 2.0 | 0.00 | 0.00 | 0.00 | 34 | 1017.6 |
| 20260903061539 | 83 | 262 | 0.0 | 4.0 | 0.00 | 0.00 | 0.00 | 34 | 1017.5 |
| 20260903061036 | 83 | 262 | 1.0 | 4.0 | 0.00 | 0.00 | 0.00 | 34 | 1017.6 |
| 20260903060533 | 83 | 256 | 0.0 | 4.0 | 0.00 | 0.00 | 0.00 | 34 | 1017.5 |
| 20260903060106 | 83 | 256 | 0.0 | 4.0 | 0.00 | 0.00 | 0.00 | 34 | 1017.6 |
| 20260903055533 | 83 | 234 | 1.0 | 4.0 | 0.00 | 0.00 | 0.00 | 33 | 1017.7 |
| 20260903055031 | 82 | 250 | 0.0 | 2.0 | 0.00 | 0.00 | 0.00 | 35 | 1017.7 |
| 20260903054535 | 82 | 250 | 0.0 | 0.0 | 0.00 | 0.00 | 0.00 | 34 | 1017.7 |
| 20260903054034 | 83 | 250 | 0.0 | 1.0 | 0.00 | 0.00 | 0.00 | 34 | 1017.8 |
| 20260903053531 | 83 | 250 | 0.0 | 4.0 | 0.00 | 0.00 | 0.00 | 34 | 1017.8 |
| 20260903053032 | 83 | 250 | 0.0 | 3.0 | 0.00 | 0.00 | 0.00 | 33 | 1017.8 |
| 20260903052531 | 84 | 256 | 0.0 | 5.0 | 0.00 | 0.00 | 0.00 | 33 | 1017.7 |
| 20260903052031 | 84 | 231 | 0.0 | 5.0 | 0.00 | 0.00 | 0.00 | 33 | 1017.7 |
| 20260903051531 | 84 | 238 | 0.0 | 4.0 | 0.00 | 0.00 | 0.00 | 33 | 1017.7 |
| 20260903051031 | 84 | 232 | 0.0 | 4.0 | 0.00 | 0.00 | 0.00 | 33 | 1017.7 |
| 20260903050530 | 84 | 225 | 0.0 | 5.0 | 0.00 | 0.00 | 0.00 | 34 | 1017.7 |
| 20260903050033 | 84 | 225 | 1.0 | 5.0 | 0.00 | 0.00 | 0.00 | 33 | 1017.7 |
| 20260903045531 | 84 | 214 | 0.0 | 2.0 | 0.00 | 0.00 | 0.00 | 34 | 1017.7 |
| 20260903045030 | 84 | 214 | 1.0 | 2.0 | 0.00 | 0.00 | 0.00 | 34 | 1017.7 |
| 20260903044530 | 85 | 214 | 0.0 | 2.0 | 0.00 | 0.00 | 0.00 | 33 | 1017.8 |
| 20260903044029 | 85 | 214 | 0.0 | 2.0 | 0.00 | 0.00 | 0.00 | 33 | 1017.7 |
| 20260903043529 | 85 | 239 | 0.0 | 2.0 | 0.00 | 0.00 | 0.00 | 32 | 1017.7 |
| 20260903043029 | 86 | 239 | 0.0 | 2.0 | 0.00 | 0.00 | 0.00 | 31 | 1017.6 |
| 20260903042529 | 86 | 240 | 0.0 | 2.0 | 0.00 | 0.00 | 0.00 | 31 | 1017.6 |
| 20260903042029 | 86 | 240 | 1.0 | 5.0 | 0.00 | 0.00 | 0.00 | 31 | 1017.7 |
| 20260903041528 | 87 | 210 | 0.0 | 5.0 | 0.00 | 0.00 | 0.00 | 30 | 1017.6 |
| 20260903041029 | 87 | 215 | 2.0 | 6.0 | 0.00 | 0.00 | 0.00 | 30 | 1017.6 |
| 20260903040529 | 86 | 226 | 2.0 | 6.0 | 0.00 | 0.00 | 0.00 | 31 | 1017.6 |
| 20260903040048 | 86 | 234 | 0.0 | 2.0 | 0.00 | 0.00 | 0.00 | 32 | 1017.5 |
| 20260903035528 | 86 | 234 | 0.0 | 1.0 | 0.00 | 0.00 | 0.00 | 32 | 1017.5 |
| 20260903035028 | 86 | 234 | 0.0 | 1.0 | 0.00 | 0.00 | 0.00 | 32 | 1017.4 |
| 20260903034528 | 86 | 234 | 0.0 | 1.0 | 0.00 | 0.00 | 0.00 | 32 | 1017.4 |
| 20260903034028 | 86 | 234 | 0.0 | 1.0 | 0.00 | 0.00 | 0.00 | 33 | 1017.4 |
| 20260903033527 | 86 | 234 | 0.0 | 1.0 | 0.00 | 0.00 | 0.00 | 32 | 1017.4 |
| 20260903033031 | 86 | 234 | 0.0 | 1.0 | 0.00 | 0.00 | 0.00 | 32 | 1017.4 |
| 20260903032526 | 86 | 234 | 0.0 | 1.0 | 0.00 | 0.00 | 0.00 | 32 | 1017.2 |
| 20260903032025 | 86 | 234 | 0.0 | 0.0 | 0.00 | 0.00 | 0.00 | 33 | 1017.2 |
| 20260903031531 | 86 | 234 | 0.0 | 0.0 | 0.00 | 0.00 | 0.00 | 33 | 1017.1 |
| 20260903031023 | 86 | 234 | 0.0 | 0.0 | 0.00 | 0.00 | 0.00 | 33 | 1017.1 |
| 20260903030522 | 86 | 234 | 0.0 | 0.0 | 0.00 | 0.00 | 0.00 | 33 | 1017.0 |
| 20260903030023 | 87 | 234 | 0.0 | 1.0 | 0.00 | 0.00 | 0.00 | 32 | 1016.9 |
| 20260903025523 | 87 | 234 | 0.0 | 1.0 | 0.00 | 0.00 | 0.00 | 31 | 1016.8 |
| 20260903025022 | 88 | 234 | 0.0 | 1.0 | 0.00 | 0.00 | 0.00 | 30 | 1016.8 |
| 20260903024522 | 88 | 234 | 0.0 | 1.0 | 0.00 | 0.00 | 0.00 | 30 | 1016.7 |
| 20260903024022 | 88 | 234 | 0.0 | 1.0 | 0.00 | 0.00 | 0.00 | 29 | 1016.6 |
| 20260903023521 | 88 | 234 | 0.0 | 2.0 | 0.00 | 0.00 | 0.00 | 29 | 1016.6 |
| 20260903023033 | 89 | 234 | 0.0 | 2.0 | 0.00 | 0.00 | 0.00 | 28 | 1016.6 |
| 20260903022522 | 89 | 234 | 0.0 | 4.0 | 0.00 | 0.00 | 0.00 | 27 | 1016.5 |
| 20260903022021 | 89 | 234 | 1.0 | 4.0 | 0.00 | 0.00 | 0.00 | 27 | 1016.5 |
| 20260903021521 | 89 | 248 | 1.0 | 4.0 | 0.00 | 0.00 | 0.00 | 26 | 1016.5 |
| 20260903021022 | 89 | 255 | 1.0 | 4.0 | 0.00 | 0.00 | 0.00 | 27 | 1016.4 |
| 20260903020520 | 90 | 255 | 1.0 | 5.0 | 0.00 | 0.00 | 0.00 | 26 | 1016.4 |
| 20260903020021 | 90 | 261 | 2.0 | 6.0 | 0.00 | 0.00 | 0.00 | 26 | 1016.4 |
| 20260903015520 | 90 | 267 | 4.0 | 6.0 | 0.00 | 0.00 | 0.00 | 26 | 1016.4 |
| 20260903015020 | 90 | 259 | 2.0 | 5.0 | 0.00 | 0.00 | 0.00 | 27 | 1016.3 |
| 20260903014522 | 90 | 260 | 1.0 | 6.0 | 0.00 | 0.00 | 0.00 | 27 | 1016.3 |
| 20260903014020 | 90 | 250 | 3.0 | 6.0 | 0.00 | 0.00 | 0.00 | 26 | 1016.1 |
| 20260903013520 | 90 | 276 | 2.0 | 6.0 | 0.00 | 0.00 | 0.00 | 26 | 1016.2 |
| 20260903013020 | 91 | 248 | 2.0 | 6.0 | 0.00 | 0.00 | 0.00 | 26 | 1016.2 |
| 20260903012519 | 91 | 252 | 3.0 | 6.0 | 0.00 | 0.00 | 0.00 | 25 | 1016.2 |
| 20260903012020 | 91 | 223 | 2.0 | 6.0 | 0.00 | 0.00 | 0.00 | 25 | 1016.3 |
| 20260903011519 | 91 | 234 | 1.0 | 7.0 | 0.00 | 0.00 | 0.00 | 26 | 1016.2 |
| 20260903011020 | 91 | 261 | 3.0 | 7.0 | 0.00 | 0.00 | 0.00 | 26 | 1016.2 |
| 20260903010519 | 91 | 271 | 1.0 | 6.0 | 0.00 | 0.00 | 0.00 | 26 | 1016.2 |
| 20260903010037 | 91 | 249 | 3.0 | 7.0 | 0.00 | 0.00 | 0.00 | 25 | 1016.1 |
| 20260903005522 | 91 | 242 | 3.0 | 7.0 | 0.00 | 0.00 | 0.00 | 25 | 1016.1 |
| 20260903005021 | 92 | 212 | 3.0 | 7.0 | 0.00 | 0.00 | 0.00 | 25 | 1016.1 |
| 20260903004519 | 92 | 306 | 4.0 | 7.0 | 0.00 | 0.00 | 0.00 | 24 | 1016.1 |
| 20260903004018 | 92 | 305 | 3.0 | 7.0 | 0.00 | 0.00 | 0.00 | 24 | 1016.1 |
| 20260903003518 | 93 | 329 | 2.0 | 7.0 | 0.00 | 0.00 | 0.00 | 24 | 1016.1 |
| 20260903003018 | 93 | 223 | 2.0 | 7.0 | 0.00 | 0.00 | 0.00 | 24 | 1016.1 |
| 20260903002519 | 93 | 230 | 3.0 | 7.0 | 0.00 | 0.00 | 0.00 | 24 | 1016.2 |
| 20260903002017 | 93 | 343 | 3.0 | 7.0 | 0.00 | 0.00 | 0.00 | 24 | 1016.2 |
| 20260903001528 | 93 | 297 | 4.0 | 8.0 | 0.00 | 0.00 | 0.00 | 24 | 1016.2 |
| 20260903001017 | 93 | 239 | 3.0 | 10.0 | 0.00 | 0.00 | 0.00 | 24 | 1016.3 |
| 20260903000518 | 93 | 252 | 6.0 | 10.0 | 0.00 | 0.00 | 0.00 | 24 | 1016.3 |
| 20260903000016 | 94 | 224 | 2.0 | 7.0 | 0.00 | 0.00 | 0.00 | 24 | 1016.3 |
| 20260902235516 | 94 | 254 | 2.0 | 8.0 | 0.00 | 0.00 | 0.00 | 24 | 1016.3 |
| 20260902235018 | 94 | 304 | 5.0 | 8.0 | 0.00 | 0.00 | 0.00 | 24 | 1016.3 |
| 20260902234521 | 94 | 266 | 3.0 | 6.0 | 0.00 | 0.00 | 0.00 | 25 | 1016.3 |
| 20260902234017 | 94 | 290 | 4.0 | 6.0 | 0.00 | 0.00 | 0.00 | 25 | 1016.3 |
| 20260902233515 | 94 | 242 | 2.0 | 7.0 | 0.00 | 0.00 | 0.00 | 25 | 1016.4 |
| 20260902233014 | 94 | 234 | 4.0 | 8.0 | 0.00 | 0.00 | 0.00 | 24 | 1016.5 |
| 20260902232513 | 94 | 230 | 5.0 | 11.0 | 0.00 | 0.00 | 0.00 | 25 | 1016.5 |
| 20260902232012 | 94 | 310 | 5.0 | 11.0 | 0.00 | 0.00 | 0.00 | 25 | 1016.5 |
| 20260902231529 | 94 | 244 | 6.0 | 9.0 | 0.00 | 0.00 | 0.00 | 25 | 1016.6 |
| 20260902231012 | 94 | 303 | 5.0 | 9.0 | 0.00 | 0.00 | 0.00 | 25 | 1016.7 |
| 20260902230511 | 94 | 316 | 3.0 | 7.0 | 0.00 | 0.00 | 0.00 | 25 | 1016.7 |
| 20260902230012 | 94 | 242 | 2.0 | 11.0 | 0.00 | 0.00 | 0.00 | 24 | 1016.7 |
| 20260902225510 | 94 | 292 | 5.0 | 10.0 | 0.00 | 0.00 | 0.00 | 25 | 1016.8 |
| 20260902225012 | 94 | 223 | 4.0 | 9.0 | 0.00 | 0.00 | 0.00 | 25 | 1016.8 |
| 20260902224511 | 94 | 213 | 5.0 | 10.0 | 0.00 | 0.00 | 0.00 | 25 | 1016.9 |
| 20260902224011 | 95 | 257 | 7.0 | 12.0 | 0.00 | 0.00 | 0.00 | 24 | 1016.9 |
| 20260902223509 | 95 | 236 | 7.0 | 13.0 | 0.00 | 0.00 | 0.00 | 23 | 1016.9 |
| 20260902223012 | 96 | 230 | 6.0 | 14.0 | 0.00 | 0.00 | 0.00 | 24 | 1016.9 |
| 20260902222509 | 96 | 326 | 4.0 | 9.0 | 0.00 | 0.00 | 0.00 | 24 | 1016.9 |
| 20260902222008 | 96 | 224 | 5.0 | 12.0 | 0.00 | 0.00 | 0.00 | 24 | 1016.8 |
| 20260902221507 | 96 | 301 | 5.0 | 12.0 | 0.00 | 0.00 | 0.00 | 24 | 1016.9 |
| 20260902221010 | 95 | 305 | 5.0 | 9.0 | 0.00 | 0.00 | 0.00 | 24 | 1017.0 |
| 20260902220507 | 95 | 281 | 4.0 | 8.0 | 0.00 | 0.00 | 0.00 | 24 | 1017.0 |
| 20260902220011 | 95 | 299 | 4.0 | 11.0 | 0.00 | 0.00 | 0.00 | 24 | 1017.0 |
| 20260902215506 | 95 | 263 | 5.0 | 11.0 | 0.00 | 0.00 | 0.00 | 24 | 1017.0 |
| 20260902215009 | 95 | 225 | 6.0 | 11.0 | 0.00 | 0.00 | 0.00 | 24 | 1017.1 |
| 20260902214505 | 94 | 149 | 3.0 | 11.0 | 0.00 | 0.00 | 0.00 | 25 | 1017.1 |
| 20260902214005 | 94 | 157 | 5.0 | 10.0 | 0.00 | 0.00 | 0.00 | 25 | 1017.2 |
| 20260902213504 | 95 | 215 | 3.0 | 11.0 | 0.00 | 0.00 | 0.00 | 24 | 1017.2 |
| 20260902213006 | 95 | 196 | 5.0 | 11.0 | 0.00 | 0.00 | 0.00 | 25 | 1017.3 |
| 20260902212504 | 95 | 314 | 2.0 | 11.0 | 0.00 | 0.00 | 0.00 | 24 | 1017.4 |
| 20260902212006 | 96 | 192 | 5.0 | 11.0 | 0.00 | 0.00 | 0.00 | 24 | 1017.4 |
| 20260902211502 | 96 | 182 | 5.0 | 10.0 | 0.00 | 0.00 | 0.00 | 23 | 1017.5 |
| 20260902211002 | 95 | 237 | 6.0 | 10.0 | 0.00 | 0.00 | 0.00 | 24 | 1017.5 |
| 20260902210502 | 96 | 214 | 6.0 | 11.0 | 0.00 | 0.00 | 0.00 | 24 | 1017.7 |
| 20260902205559 | 96 | 206 | 6.0 | 13.0 | 0.00 | 0.00 | 0.00 | 24 | 1017.7 |
| 20260902205101 | 94 | 257 | 1.0 | 8.0 | 0.00 | 0.00 | 0.00 | 25 | 1017.8 |
| 20260902204558 | 94 | 204 | 3.0 | 7.0 | 0.00 | 0.00 | 0.00 | 25 | 1017.8 |
| 20260902204056 | 94 | 263 | 4.0 | 9.0 | 0.00 | 0.00 | 0.00 | 25 | 1018.0 |
| 20260902203556 | 94 | 243 | 3.0 | 9.0 | 0.00 | 0.00 | 0.00 | 24 | 1018.1 |
| 20260902203055 | 95 | 246 | 4.0 | 9.0 | 0.00 | 0.00 | 0.00 | 25 | 1018.1 |
| 20260902202556 | 95 | 158 | 2.0 | 10.0 | 0.00 | 0.00 | 0.00 | 25 | 1018.2 |
| 20260902202054 | 94 | 207 | 5.0 | 10.0 | 0.00 | 0.00 | 0.00 | 25 | 1018.4 |
| 20260902201553 | 95 | 304 | 6.0 | 9.0 | 0.00 | 0.00 | 0.00 | 24 | 1018.4 |
| 20260902201052 | 94 | 119 | 0.0 | 9.0 | 0.00 | 0.00 | 0.00 | 26 | 1018.5 |
| 20260902200551 | 94 | 164 | 3.0 | 9.0 | 0.00 | 0.00 | 0.00 | 25 | 1018.6 |
| 20260902200051 | 93 | 131 | 3.0 | 8.0 | 0.00 | 0.00 | 0.00 | 26 | 1018.7 |
| 20260902195550 | 94 | 313 | 2.0 | 8.0 | 0.00 | 0.00 | 0.00 | 26 | 1018.7 |
| 20260902195047 | 94 | 212 | 4.0 | 10.0 | 0.00 | 0.00 | 0.00 | 25 | 1018.8 |
| 20260902194547 | 94 | 220 | 5.0 | 10.0 | 0.00 | 0.00 | 0.00 | 25 | 1018.9 |
| 20260902194046 | 94 | 140 | 3.0 | 9.0 | 0.00 | 0.00 | 0.00 | 26 | 1018.9 |
| 20260902193545 | 94 | 163 | 3.0 | 9.0 | 0.00 | 0.00 | 0.00 | 26 | 1019.0 |
| 20260902193045 | 93 | 85 | 2.0 | 13.0 | 0.00 | 0.00 | 0.00 | 27 | 1019.0 |
| 20260902192544 | 93 | 117 | 6.0 | 13.0 | 0.00 | 0.00 | 0.00 | 27 | 1019.1 |
| 20260902192049 | 93 | 173 | 5.0 | 11.0 | 0.00 | 0.00 | 0.00 | 27 | 1019.1 |
| 20260902191543 | 93 | 325 | 1.0 | 10.0 | 0.00 | 0.00 | 0.00 | 28 | 1019.2 |
| 20260902191042 | 93 | 153 | 5.0 | 10.0 | 0.00 | 0.00 | 0.00 | 28 | 1019.3 |
| 20260902190542 | 92 | 130 | 4.0 | 10.0 | 0.00 | 0.00 | 0.00 | 28 | 1019.3 |
| 20260902190043 | 93 | 167 | 5.0 | 9.0 | 0.00 | 0.00 | 0.00 | 27 | 1019.4 |
| 20260902185541 | 92 | 300 | 2.0 | 11.0 | 0.00 | 0.00 | 0.00 | 28 | 1019.4 |
| 20260902185043 | 91 | 217 | 4.0 | 11.0 | 0.00 | 0.00 | 0.00 | 29 | 1019.5 |
| 20260902184539 | 90 | 171 | 1.0 | 8.0 | 0.00 | 0.00 | 0.00 | 29 | 1019.6 |
| 20260902184038 | 91 | 173 | 3.0 | 10.0 | 0.00 | 0.00 | 0.00 | 29 | 1019.8 |
| 20260902183538 | 91 | 144 | 3.0 | 10.0 | 0.00 | 0.00 | 0.00 | 29 | 1019.8 |
| 20260902183037 | 91 | 195 | 2.0 | 10.0 | 0.00 | 0.00 | 0.00 | 29 | 1019.9 |
| 20260902182535 | 90 | 150 | 5.0 | 8.0 | 0.00 | 0.00 | 0.00 | 30 | 1019.9 |
| 20260902182037 | 90 | 269 | 3.0 | 9.0 | 0.00 | 0.00 | 0.00 | 30 | 1020.1 |
| 20260902181534 | 90 | 193 | 5.0 | 10.0 | 0.00 | 0.00 | 0.00 | 29 | 1020.1 |
| 20260902181034 | 90 | 260 | 1.0 | 10.0 | 0.00 | 0.00 | 0.00 | 31 | 1020.1 |
| 20260902180533 | 90 | 223 | 6.0 | 10.0 | 0.00 | 0.00 | 0.00 | 31 | 1020.3 |
| 20260902180031 | 89 | 269 | 3.0 | 9.0 | 0.00 | 0.00 | 0.00 | 30 | 1020.3 |
| 20260902175530 | 90 | 234 | 6.0 | 9.0 | 0.00 | 0.00 | 0.00 | 31 | 1020.3 |
| 20260902175028 | 89 | 171 | 4.0 | 9.0 | 0.00 | 0.00 | 0.00 | 32 | 1020.3 |
| 20260902174532 | 89 | 276 | 4.0 | 8.0 | 0.00 | 0.00 | 0.00 | 32 | 1020.3 |
| 20260902174025 | 89 | 244 | 4.0 | 8.0 | 0.00 | 0.00 | 0.00 | 32 | 1020.4 |
| 20260902173524 | 89 | 247 | 4.0 | 10.0 | 0.00 | 0.00 | 0.00 | 32 | 1020.4 |
| 20260902173032 | 88 | 238 | 6.0 | 10.0 | 0.00 | 0.00 | 0.00 | 33 | 1020.5 |
| 20260902172524 | 88 | 224 | 4.0 | 9.0 | 0.00 | 0.00 | 0.00 | 34 | 1020.5 |
| 20260902172020 | 87 | 143 | 2.0 | 10.0 | 0.00 | 0.00 | 0.00 | 35 | 1020.5 |
| 20260902171519 | 87 | 208 | 5.0 | 10.0 | 0.00 | 0.00 | 0.00 | 35 | 1020.6 |
| 20260902171018 | 86 | 172 | 3.0 | 8.0 | 0.00 | 0.00 | 0.00 | 36 | 1020.6 |
| 20260902170521 | 86 | 202 | 4.0 | 10.0 | 0.00 | 0.00 | 0.00 | 35 | 1020.7 |
| 20260902170018 | 87 | 207 | 6.0 | 10.0 | 0.00 | 0.00 | 0.00 | 35 | 1020.6 |
| 20260902165513 | 87 | 234 | 4.0 | 8.0 | 0.00 | 0.00 | 0.00 | 35 | 1020.6 |
| 20260902165014 | 86 | 217 | 5.0 | 9.0 | 0.00 | 0.00 | 0.00 | 36 | 1020.7 |
| 20260902164510 | 85 | 152 | 5.0 | 9.0 | 0.00 | 0.00 | 0.00 | 36 | 1020.6 |
| 20260902164009 | 85 | 207 | 4.0 | 9.0 | 0.00 | 0.00 | 0.00 | 35 | 1020.7 |
| 20260902163508 | 85 | 169 | 5.0 | 9.0 | 0.00 | 0.00 | 0.00 | 36 | 1020.6 |
| 20260902163006 | 84 | 263 | 6.0 | 9.0 | 0.00 | 0.00 | 0.00 | 36 | 1020.7 |
| 20260902162504 | 83 | 209 | 3.0 | 7.0 | 0.00 | 0.00 | 0.00 | 38 | 1020.6 |
| 20260902162005 | 83 | 166 | 3.0 | 7.0 | 0.00 | 0.00 | 0.00 | 38 | 1020.6 |
| 20260902161509 | 83 | 154 | 3.0 | 7.0 | 0.00 | 0.00 | 0.00 | 37 | 1020.6 |
| 20260902161004 | 82 | 215 | 4.0 | 7.0 | 0.00 | 0.00 | 0.00 | 39 | 1020.6 |
| 20260902160559 | 82 | 182 | 3.0 | 8.0 | 0.00 | 0.00 | 0.00 | 40 | 1020.6 |
| 20260902160058 | 82 | 276 | 3.0 | 8.0 | 0.00 | 0.00 | 0.00 | 40 | 1020.6 |
| 20260902155557 | 81 | 224 | 4.0 | 8.0 | 0.00 | 0.00 | 0.00 | 40 | 1020.6 |
| 20260902155056 | 81 | 160 | 4.0 | 8.0 | 0.00 | 0.00 | 0.00 | 40 | 1020.7 |
| 20260902154555 | 80 | 222 | 4.0 | 8.0 | 0.00 | 0.00 | 0.00 | 41 | 1020.7 |
| 20260902154052 | 80 | 219 | 4.0 | 8.0 | 0.00 | 0.00 | 0.00 | 41 | 1020.6 |
| 20260902153552 | 80 | 192 | 2.0 | 8.0 | 0.00 | 0.00 | 0.00 | 42 | 1020.6 |
| 20260902153049 | 80 | 170 | 5.0 | 8.0 | 0.00 | 0.00 | 0.00 | 42 | 1020.7 |
| 20260902152548 | 80 | 150 | 3.0 | 9.0 | 0.00 | 0.00 | 0.00 | 43 | 1020.6 |
| 20260902152046 | 79 | 182 | 3.0 | 9.0 | 0.00 | 0.00 | 0.00 | 43 | 1020.6 |
| 20260902151545 | 79 | 224 | 4.0 | 9.0 | 0.00 | 0.00 | 0.00 | 44 | 1020.6 |
| 20260902151044 | 78 | 171 | 5.0 | 10.0 | 0.00 | 0.00 | 0.00 | 44 | 1020.5 |
| 20260902150543 | 78 | 180 | 6.0 | 10.0 | 0.00 | 0.00 | 0.00 | 44 | 1020.5 |
| 20260902150042 | 78 | 144 | 3.0 | 8.0 | 0.00 | 0.00 | 0.00 | 45 | 1020.5 |
| 20260902145540 | 77 | 218 | 4.0 | 8.0 | 0.00 | 0.00 | 0.00 | 45 | 1020.5 |
| 20260902145038 | 77 | 159 | 4.0 | 9.0 | 0.00 | 0.00 | 0.00 | 45 | 1020.5 |
| 20260902144538 | 77 | 194 | 4.0 | 9.0 | 0.00 | 0.00 | 0.00 | 45 | 1020.4 |
| 20260902144035 | 76 | 147 | 5.0 | 9.0 | 0.00 | 0.00 | 0.00 | 44 | 1020.4 |
| 20260902143534 | 76 | 161 | 3.0 | 9.0 | 0.00 | 0.00 | 0.00 | 45 | 1020.4 |
| 20260902143032 | 76 | 154 | 4.0 | 7.0 | 0.00 | 0.00 | 0.00 | 46 | 1020.4 |
| 20260902142532 | 76 | 161 | 1.0 | 7.0 | 0.00 | 0.00 | 0.00 | 46 | 1020.3 |
| 20260902142030 | 75 | 184 | 1.0 | 8.0 | 0.00 | 0.00 | 0.00 | 47 | 1020.3 |
| 20260902141529 | 75 | 166 | 5.0 | 8.0 | 0.00 | 0.00 | 0.00 | 46 | 1020.3 |
| 20260902141026 | 75 | 151 | 2.0 | 6.0 | 0.00 | 0.00 | 0.00 | 47 | 1020.1 |
| 20260902140526 | 75 | 188 | 2.0 | 6.0 | 0.00 | 0.00 | 0.00 | 48 | 1020.2 |
| 20260902140032 | 74 | 177 | 2.0 | 6.0 | 0.00 | 0.00 | 0.00 | 48 | 1020.1 |
| 20260902135524 | 74 | 209 | 1.0 | 4.0 | 0.00 | 0.00 | 0.00 | 48 | 1020.1 |
| 20260902135023 | 74 | 209 | 1.0 | 4.0 | 0.00 | 0.00 | 0.00 | 49 | 1020.0 |
| 20260902134523 | 73 | 209 | 1.0 | 5.0 | 0.00 | 0.00 | 0.00 | 50 | 1020.0 |
| 20260902134021 | 73 | 209 | 2.0 | 5.0 | 0.00 | 0.00 | 0.00 | 50 | 1019.9 |
| 20260902133521 | 72 | 209 | 0.0 | 2.0 | 0.00 | 0.00 | 0.00 | 51 | 1019.9 |
| 20260902133020 | 71 | 209 | 0.0 | 2.0 | 0.00 | 0.00 | 0.00 | 52 | 1019.8 |
| 20260902132526 | 71 | 209 | 0.0 | 1.0 | 0.00 | 0.00 | 0.00 | 52 | 1019.8 |
| 20260902132019 | 71 | 209 | 0.0 | 1.0 | 0.00 | 0.00 | 0.00 | 51 | 1019.8 |
| 20260902131528 | 70 | 209 | 0.0 | 2.0 | 0.00 | 0.00 | 0.00 | 53 | 1019.7 |
| 20260902131017 | 70 | 209 | 0.0 | 2.0 | 0.00 | 0.00 | 0.00 | 52 | 1019.7 |
| 20260902130516 | 70 | 209 | 1.0 | 2.0 | 0.00 | 0.00 | 0.00 | 51 | 1019.6 |
| 20260902130015 | 70 | 209 | 0.0 | 1.0 | 0.00 | 0.00 | 0.00 | 52 | 1019.5 |
| 20260902125517 | 70 | 209 | 0.0 | 0.0 | 0.00 | 0.00 | 0.00 | 51 | 1019.5 |
| 20260902125015 | 70 | 209 | 0.0 | 2.0 | 0.00 | 0.00 | 0.00 | 51 | 1019.5 |
| 20260902124525 | 70 | 209 | 0.0 | 2.0 | 0.00 | 0.00 | 0.00 | 49 | 1019.4 |
| 20260902124013 | 71 | 209 | 0.0 | 1.0 | 0.00 | 0.00 | 0.00 | 50 | 1019.4 |
| 20260902123511 | 70 | 209 | 0.0 | 2.0 | 0.00 | 0.00 | 0.00 | 50 | 1019.3 |
| 20260902123010 | 70 | 209 | 0.0 | 2.0 | 0.00 | 0.00 | 0.00 | 51 | 1019.3 |
| 20260902122512 | 71 | 209 | 0.0 | 0.0 | 0.00 | 0.00 | 0.00 | 51 | 1019.3 |
| 20260902122008 | 71 | 209 | 0.0 | 0.0 | 0.00 | 0.00 | 0.00 | 50 | 1019.2 |
| 20260902121508 | 71 | 209 | 0.0 | 5.0 | 0.00 | 0.00 | 0.00 | 49 | 1019.2 |
| 20260902121008 | 72 | 209 | 0.0 | 5.0 | 0.00 | 0.00 | 0.00 | 48 | 1019.3 |
| 20260902120507 | 71 | 209 | 0.0 | 4.0 | 0.00 | 0.00 | 0.00 | 49 | 1019.2 |
| 20260902120007 | 71 | 209 | 0.0 | 2.0 | 0.00 | 0.00 | 0.00 | 49 | 1019.2 |
| 20260902115506 | 71 | 209 | 0.0 | 2.0 | 0.00 | 0.00 | 0.00 | 50 | 1019.2 |
| 20260902115006 | 71 | 209 | 0.0 | 1.0 | 0.00 | 0.00 | 0.00 | 50 | 1019.2 |
| 20260902114515 | 71 | 209 | 0.0 | 2.0 | 0.00 | 0.00 | 0.00 | 50 | 1019.1 |
| 20260902114005 | 71 | 209 | 0.0 | 2.0 | 0.00 | 0.00 | 0.00 | 50 | 1019.1 |
| 20260902113504 | 71 | 209 | 0.0 | 2.0 | 0.00 | 0.00 | 0.00 | 50 | 1019.0 |
| 20260902113002 | 72 | 209 | 0.0 | 1.0 | 0.00 | 0.00 | 0.00 | 50 | 1019.0 |
| 20260902112502 | 71 | 209 | 0.0 | 1.0 | 0.00 | 0.00 | 0.00 | 50 | 1019.0 |
| 20260902112004 | 71 | 209 | 0.0 | 2.0 | 0.00 | 0.00 | 0.00 | 51 | 1018.9 |
| 20260902111502 | 71 | 209 | 0.0 | 2.0 | 0.00 | 0.00 | 0.00 | 50 | 1019.0 |
| 20260902111001 | 72 | 209 | 0.0 | 1.0 | 0.00 | 0.00 | 0.00 | 50 | 1019.0 |
| 20260902110500 | 72 | 209 | 0.0 | 1.0 | 0.00 | 0.00 | 0.00 | 50 | 1019.0 |
| 20260902110001 | 72 | 209 | 0.0 | 2.0 | 0.00 | 0.00 | 0.00 | 50 | 1019.0 |
| 20260902105604 | 72 | 209 | 0.0 | 2.0 | 0.00 | 0.00 | 0.00 | 51 | 1018.9 |
| 20260902105100 | 72 | 209 | 0.0 | 1.0 | 0.00 | 0.00 | 0.00 | 50 | 1019.0 |
| 20260902104603 | 72 | 209 | 0.0 | 1.0 | 0.00 | 0.00 | 0.00 | 50 | 1019.0 |
| 20260902104059 | 72 | 209 | 0.0 | 1.0 | 0.00 | 0.00 | 0.00 | 50 | 1019.0 |
| 20260902103604 | 72 | 209 | 0.0 | 1.0 | 0.00 | 0.00 | 0.00 | 49 | 1019.1 |
| 20260902103118 | 73 | 209 | 0.0 | 1.0 | 0.00 | 0.00 | 0.00 | 49 | 1019.1 |
| 20260902102558 | 73 | 209 | 0.0 | 2.0 | 0.00 | 0.00 | 0.00 | 48 | 1019.1 |
| 20260902102058 | 72 | 209 | 0.0 | 2.0 | 0.00 | 0.00 | 0.00 | 48 | 1019.1 |
| 20260902101557 | 72 | 209 | 0.0 | 1.0 | 0.00 | 0.00 | 0.00 | 48 | 1019.0 |
| 20260902101057 | 73 | 209 | 0.0 | 0.0 | 0.00 | 0.00 | 0.00 | 48 | 1019.0 |
| 20260902100557 | 72 | 209 | 0.0 | 0.0 | 0.00 | 0.00 | 0.00 | 48 | 1018.9 |
| 20260902100057 | 73 | 209 | 0.0 | 0.0 | 0.00 | 0.00 | 0.00 | 47 | 1018.9 |
| 20260902095559 | 73 | 209 | 0.0 | 0.0 | 0.00 | 0.00 | 0.00 | 47 | 1019.0 |
| 20260902095056 | 73 | 209 | 0.0 | 2.0 | 0.00 | 0.00 | 0.00 | 48 | 1019.0 |
| 20260902094600 | 73 | 209 | 0.0 | 2.0 | 0.00 | 0.00 | 0.00 | 49 | 1018.9 |
| 20260902094056 | 72 | 209 | 0.0 | 1.0 | 0.00 | 0.00 | 0.00 | 49 | 1019.0 |
| 20260902093555 | 73 | 209 | 0.0 | 0.0 | 0.00 | 0.00 | 0.00 | 48 | 1018.9 |
| 20260902093103 | 73 | 209 | 0.0 | 0.0 | 0.00 | 0.00 | 0.00 | 48 | 1018.9 |
| 20260902092554 | 73 | 209 | 0.0 | 0.0 | 0.00 | 0.00 | 0.00 | 47 | 1018.9 |
| 20260902092057 | 73 | 209 | 0.0 | 0.0 | 0.00 | 0.00 | 0.00 | 47 | 1018.8 |
| 20260902091556 | 73 | 209 | 0.0 | 0.0 | 0.00 | 0.00 | 0.00 | 47 | 1018.9 |
| 20260902091055 | 73 | 209 | 0.0 | 0.0 | 0.00 | 0.00 | 0.00 | 46 | 1018.8 |
| 20260902090556 | 74 | 209 | 0.0 | 1.0 | 0.00 | 0.00 | 0.00 | 46 | 1018.8 |
| 20260902090059 | 74 | 209 | 0.0 | 1.0 | 0.00 | 0.00 | 0.00 | 46 | 1018.8 |
| 20260902085554 | 74 | 209 | 0.0 | 0.0 | 0.00 | 0.00 | 0.00 | 46 | 1018.9 |
| 20260902085050 | 74 | 209 | 0.0 | 1.0 | 0.00 | 0.00 | 0.00 | 45 | 1019.0 |
| 20260902084550 | 74 | 209 | 0.0 | 1.0 | 0.00 | 0.00 | 0.00 | 45 | 1019.0 |
| 20260902084051 | 74 | 209 | 0.0 | 0.0 | 0.00 | 0.00 | 0.00 | 45 | 1018.9 |
| 20260902083549 | 74 | 209 | 0.0 | 0.0 | 0.00 | 0.00 | 0.00 | 44 | 1019.0 |
| 20260902083047 | 75 | 209 | 0.0 | 0.0 | 0.00 | 0.00 | 0.00 | 45 | 1019.0 |
| 20260902082547 | 75 | 209 | 0.0 | 1.0 | 0.00 | 0.00 | 0.00 | 44 | 1019.0 |